Time;durP1;ratioP1;P1;durP2;ratioP2;P2;SDS_P1;SDS_P2;PMS_P1;PMS_P2;Temp;Humidity;BMP_temperature;BMP_pressure;BME280_temperature;BME280_humidity;BME280_pressure;Samples;Min_cycle;Max_cycle;Signal;HPM_P1;HPM_P2
2021/10/26 00:02:03;;;;;;;5.50;4.20;;;;;;;;;;5008731;28;20596;-79
2021/10/26 00:04:29;;;;;;;4.82;3.30;;;;;;;;;;5009179;28;20179;-81
2021/10/26 00:06:55;;;;;;;5.93;3.00;;;;;;;;;;4992901;28;20237;-81
2021/10/26 00:09:22;;;;;;;4.87;3.27;;;;;;;;;;4992781;28;20644;-80
2021/10/26 00:11:48;;;;;;;6.25;3.60;;;;;;;;;;5008661;28;20500;-79
2021/10/26 00:14:14;;;;;;;8.80;5.00;;;;;;;;;;4993871;28;20203;-82
2021/10/26 00:16:40;;;;;;;7.63;3.65;;;;;;;;;;4993921;28;20198;-79
2021/10/26 00:19:06;;;;;;;5.23;4.03;;;;;;;;;;4994140;28;20591;-80
2021/10/26 00:21:34;;;;;;;8.32;3.80;;;;;;;;;;4994371;28;20466;-78
2021/10/26 00:24:00;;;;;;;5.38;3.35;;;;;;;;;;4994121;28;20171;-81
2021/10/26 00:26:26;;;;;;;4.63;3.55;;;;;;;;;;4994187;28;20632;-80
2021/10/26 00:28:54;;;;;;;7.45;3.88;;;;;;;;;;4992915;28;20195;-79
2021/10/26 00:31:20;;;;;;;5.80;3.63;;;;;;;;;;4993512;28;20207;-78
2021/10/26 00:33:46;;;;;;;6.68;3.70;;;;;;;;;;4993821;28;20253;-79
2021/10/26 00:36:12;;;;;;;5.47;3.80;;;;;;;;;;5008994;28;20187;-80
2021/10/26 00:38:38;;;;;;;5.47;4.47;;;;;;;;;;4992708;28;20186;-78
2021/10/26 00:41:05;;;;;;;5.13;4.10;;;;;;;;;;4992367;28;21087;-78
2021/10/26 00:43:31;;;;;;;4.50;3.70;;;;;;;;;;4993720;28;20477;-78
2021/10/26 00:45:58;;;;;;;5.07;3.83;;;;;;;;;;4993727;28;20183;-80
2021/10/26 00:48:24;;;;;;;6.82;4.07;;;;;;;;;;4993857;28;20534;-81
2021/10/26 00:50:50;;;;;;;4.57;4.15;;;;;;;;;;4992756;28;20191;-78
2021/10/26 00:53:17;;;;;;;3.95;3.40;;;;;;;;;;4997279;28;20211;-79
2021/10/26 00:55:43;;;;;;;7.13;4.05;;;;;;;;;;4996664;28;20190;-79
2021/10/26 00:58:09;;;;;;;5.47;3.80;;;;;;;;;;4997589;28;20255;-81
2021/10/26 01:00:35;;;;;;;4.80;3.78;;;;;;;;;;4997897;28;20223;-81
2021/10/26 01:03:01;;;;;;;7.13;4.30;;;;;;;;;;5011969;28;20215;-80
2021/10/26 01:05:27;;;;;;;4.40;4.00;;;;;;;;;;4996006;28;20233;-80
2021/10/26 01:07:54;;;;;;;5.90;5.00;;;;;;;;;;5012139;28;20418;-78
2021/10/26 01:10:20;;;;;;;5.88;3.90;;;;;;;;;;4997124;28;20454;-79
2021/10/26 01:12:46;;;;;;;6.55;4.10;;;;;;;;;;4996623;28;20572;-78
2021/10/26 01:15:13;;;;;;;9.38;4.55;;;;;;;;;;5012158;28;20195;-80
2021/10/26 01:17:39;;;;;;;5.43;3.83;;;;;;;;;;4996015;28;20207;-78
2021/10/26 01:20:05;;;;;;;7.35;4.28;;;;;;;;;;5011807;28;20278;-80
2021/10/26 01:22:38;;;;;;;6.13;4.20;;;;;;;;;;5011698;28;20206;-78
2021/10/26 01:25:05;;;;;;;4.35;3.88;;;;;;;;;;4996980;28;20228;-78
2021/10/26 01:27:31;;;;;;;4.68;3.70;;;;;;;;;;4996923;28;20183;-80
2021/10/26 01:29:57;;;;;;;4.83;3.63;;;;;;;;;;5011866;28;20211;-80
2021/10/26 01:32:23;;;;;;;6.05;4.82;;;;;;;;;;4996198;28;20509;-79
2021/10/26 01:34:49;;;;;;;9.13;4.60;;;;;;;;;;4996689;28;20203;-80
2021/10/26 01:37:15;;;;;;;7.55;4.63;;;;;;;;;;4995745;28;20414;-80
2021/10/26 01:39:42;;;;;;;8.18;5.30;;;;;;;;;;4997193;28;20206;-78
2021/10/26 01:42:08;;;;;;;6.18;4.25;;;;;;;;;;4996078;28;20251;-79
2021/10/26 01:44:35;;;;;;;5.78;3.95;;;;;;;;;;4997002;28;20203;-79
2021/10/26 01:47:01;;;;;;;7.83;4.53;;;;;;;;;;4995445;28;20191;-80
2021/10/26 01:49:27;;;;;;;6.30;4.72;;;;;;;;;;5011693;28;20451;-80
2021/10/26 01:51:53;;;;;;;7.25;4.55;;;;;;;;;;5011306;28;20210;-78
2021/10/26 01:54:19;;;;;;;6.15;3.53;;;;;;;;;;5011458;28;20207;-80
2021/10/26 01:56:46;;;;;;;8.23;4.88;;;;;;;;;;4996566;28;20227;-77
2021/10/26 01:59:12;;;;;;;6.18;4.05;;;;;;;;;;4978761;28;20215;-78
2021/10/26 02:01:39;;;;;;;6.88;4.30;;;;;;;;;;4994615;28;20192;-79
2021/10/26 02:04:05;;;;;;;5.07;4.28;;;;;;;;;;4996021;28;20183;-79
2021/10/26 02:06:31;;;;;;;5.22;4.68;;;;;;;;;;4996371;28;20179;-79
2021/10/26 02:08:59;;;;;;;7.03;5.40;;;;;;;;;;4996207;28;20186;-80
2021/10/26 02:11:25;;;;;;;5.63;5.07;;;;;;;;;;4995842;28;20560;-78
2021/10/26 02:13:51;;;;;;;5.72;4.05;;;;;;;;;;4996091;28;20207;-79
2021/10/26 02:16:18;;;;;;;5.90;4.50;;;;;;;;;;4996063;28;20202;-77
2021/10/26 02:18:44;;;;;;;8.35;5.25;;;;;;;;;;5000687;28;20464;-77
2021/10/26 02:21:10;;;;;;;11.40;4.57;;;;;;;;;;5010565;28;20644;-80
2021/10/26 02:23:36;;;;;;;7.65;4.65;;;;;;;;;;4994602;28;20411;-81
2021/10/26 02:26:05;;;;;;;5.90;4.40;;;;;;;;;;4995750;28;20557;-78
2021/10/26 02:28:32;;;;;;;8.23;4.30;;;;;;;;;;5010679;28;20505;-80
2021/10/26 02:30:58;;;;;;;14.10;4.32;;;;;;;;;;5010359;28;20282;-79
2021/10/26 02:33:24;;;;;;;11.02;5.20;;;;;;;;;;4995765;28;20207;-77
2021/10/26 02:35:50;;;;;;;7.82;5.80;;;;;;;;;;4995755;28;20266;-78
2021/10/26 02:38:17;;;;;;;9.33;5.27;;;;;;;;;;4995652;28;20226;-80
2021/10/26 02:40:43;;;;;;;10.35;5.95;;;;;;;;;;4994436;28;20930;-81
2021/10/26 02:43:09;;;;;;;11.82;5.55;;;;;;;;;;4995056;28;20269;-81
2021/10/26 02:45:35;;;;;;;6.50;5.20;;;;;;;;;;4995381;28;20262;-79
2021/10/26 02:48:01;;;;;;;9.15;5.55;;;;;;;;;;5010452;28;20430;-78
2021/10/26 02:50:27;;;;;;;7.82;5.70;;;;;;;;;;4994127;28;20187;-79
2021/10/26 02:52:53;;;;;;;8.83;5.77;;;;;;;;;;4994685;28;20230;-81
2021/10/26 02:55:19;;;;;;;6.88;5.30;;;;;;;;;;4995230;28;20771;-80
2021/10/26 02:57:46;;;;;;;9.23;5.20;;;;;;;;;;5010201;28;20175;-78
2021/10/26 03:00:12;;;;;;;10.38;6.70;;;;;;;;;;4994953;28;20443;-80
2021/10/26 03:02:39;;;;;;;6.72;5.50;;;;;;;;;;4994614;28;20192;-80
2021/10/26 03:05:05;;;;;;;16.33;6.35;;;;;;;;;;4995050;28;20208;-78
2021/10/26 03:07:38;;;;;;;7.75;6.65;;;;;;;;;;5010144;28;20187;-80
2021/10/26 03:10:04;;;;;;;11.45;6.38;;;;;;;;;;4995105;28;20205;-78
2021/10/26 03:12:30;;;;;;;7.03;5.35;;;;;;;;;;5009641;28;20208;-79
2021/10/26 03:14:56;;;;;;;10.30;5.95;;;;;;;;;;4993854;28;20207;-81
2021/10/26 03:17:22;;;;;;;8.67;5.83;;;;;;;;;;5009675;28;20710;-80
2021/10/26 03:19:48;;;;;;;7.60;6.00;;;;;;;;;;4993526;28;20461;-79
2021/10/26 03:22:14;;;;;;;13.07;6.05;;;;;;;;;;4994323;28;20277;-81
2021/10/26 03:24:40;;;;;;;12.60;6.30;;;;;;;;;;4994575;28;20226;-80
2021/10/26 03:27:06;;;;;;;13.45;8.73;;;;;;;;;;4994439;28;20407;-79
2021/10/26 03:29:32;;;;;;;11.13;7.50;;;;;;;;;;4994625;28;20229;-81
2021/10/26 03:31:58;;;;;;;12.93;6.57;;;;;;;;;;4994272;28;20451;-78
2021/10/26 03:34:24;;;;;;;7.90;6.63;;;;;;;;;;5009849;28;20474;-80
2021/10/26 03:36:50;;;;;;;9.77;6.60;;;;;;;;;;4994946;28;20295;-79
2021/10/26 03:39:16;;;;;;;14.57;7.13;;;;;;;;;;4994590;28;20338;-78
2021/10/26 03:41:43;;;;;;;11.70;6.35;;;;;;;;;;4993876;28;20272;-78
2021/10/26 03:44:09;;;;;;;15.32;6.78;;;;;;;;;;4994385;28;20541;-79
2021/10/26 03:46:35;;;;;;;10.20;6.77;;;;;;;;;;4994312;28;20179;-78
2021/10/26 03:49:02;;;;;;;10.18;6.75;;;;;;;;;;4994427;28;20410;-81
2021/10/26 03:51:30;;;;;;;9.88;6.03;;;;;;;;;;4994107;28;20195;-79
2021/10/26 03:53:56;;;;;;;11.82;6.53;;;;;;;;;;4994091;28;20273;-81
2021/10/26 03:56:22;;;;;;;12.23;7.10;;;;;;;;;;5009321;28;20191;-80
2021/10/26 03:58:48;;;;;;;10.63;6.50;;;;;;;;;;4994062;28;20407;-79
2021/10/26 04:01:15;;;;;;;7.85;6.22;;;;;;;;;;4993651;28;20852;-78
2021/10/26 04:03:41;;;;;;;12.50;7.47;;;;;;;;;;5009415;28;20702;-79
2021/10/26 04:06:10;;;;;;;10.87;6.37;;;;;;;;;;4992877;28;20187;-79
2021/10/26 04:11:14;;;;;;;8.10;6.38;;;;;;;;;;4993629;28;20659;-77
2021/10/26 04:13:40;;;;;;;8.20;6.78;;;;;;;;;;4993753;28;20576;-78
2021/10/26 04:16:06;;;;;;;11.50;7.90;;;;;;;;;;4993865;28;20172;-80
2021/10/26 04:18:32;;;;;;;10.23;7.53;;;;;;;;;;4993704;28;20176;-79
2021/10/26 04:20:58;;;;;;;10.80;7.10;;;;;;;;;;4992305;28;20233;-78
2021/10/26 04:23:25;;;;;;;9.07;6.60;;;;;;;;;;4992347;28;20453;-79
2021/10/26 04:25:51;;;;;;;10.77;6.60;;;;;;;;;;4996901;28;20446;-78
2021/10/26 04:28:17;;;;;;;15.57;7.82;;;;;;;;;;5000319;28;20257;-78
2021/10/26 04:30:43;;;;;;;11.05;7.60;;;;;;;;;;5000139;28;20190;-78
2021/10/26 04:33:10;;;;;;;9.85;7.43;;;;;;;;;;5014805;28;20215;-80
2021/10/26 04:35:36;;;;;;;10.45;6.60;;;;;;;;;;5015170;28;20180;-78
2021/10/26 04:38:03;;;;;;;11.20;7.75;;;;;;;;;;5000100;28;20259;-79
2021/10/26 04:40:31;;;;;;;10.25;7.30;;;;;;;;;;5015676;28;20180;-78
2021/10/26 04:42:57;;;;;;;8.25;6.68;;;;;;;;;;5000107;28;20246;-79
2021/10/26 04:45:23;;;;;;;10.30;6.90;;;;;;;;;;5000273;28;20179;-78
2021/10/26 04:47:49;;;;;;;8.30;6.97;;;;;;;;;;4999039;28;20234;-78
2021/10/26 04:50:15;;;;;;;11.07;7.05;;;;;;;;;;5000293;28;20206;-80
2021/10/26 04:52:42;;;;;;;9.00;7.20;;;;;;;;;;4999593;28;20199;-80
2021/10/26 04:55:08;;;;;;;9.50;6.60;;;;;;;;;;5015254;28;20503;-77
2021/10/26 04:57:34;;;;;;;7.93;6.80;;;;;;;;;;5014985;28;20171;-79
2021/10/26 05:00:00;;;;;;;15.85;7.00;;;;;;;;;;4999974;28;20176;-78
2021/10/26 05:02:26;;;;;;;11.10;7.53;;;;;;;;;;4999697;28;20211;-80
2021/10/26 05:04:52;;;;;;;11.00;7.20;;;;;;;;;;5000093;28;20206;-78
2021/10/26 05:07:18;;;;;;;10.17;7.20;;;;;;;;;;5000004;28;20512;-80
2021/10/26 05:09:44;;;;;;;8.95;6.30;;;;;;;;;;4999852;28;20898;-78
2021/10/26 05:12:10;;;;;;;8.55;7.15;;;;;;;;;;5014737;28;20338;-77
2021/10/26 05:14:36;;;;;;;8.90;6.83;;;;;;;;;;4996792;28;20286;-80
2021/10/26 05:17:04;;;;;;;13.60;7.55;;;;;;;;;;4996165;28;20800;-79
2021/10/26 05:19:32;;;;;;;9.73;7.35;;;;;;;;;;4998545;28;20266;-79
2021/10/26 05:21:58;;;;;;;11.40;8.13;;;;;;;;;;4996242;28;20237;-80
2021/10/26 05:24:25;;;;;;;10.88;7.10;;;;;;;;;;4999576;28;20541;-77
2021/10/26 05:26:52;;;;;;;7.72;6.35;;;;;;;;;;4998414;28;20660;-79
2021/10/26 05:29:18;;;;;;;12.65;7.35;;;;;;;;;;4999742;28;20175;-78
2021/10/26 05:31:44;;;;;;;10.50;7.83;;;;;;;;;;4999271;28;20221;-79
2021/10/26 05:34:10;;;;;;;10.52;7.30;;;;;;;;;;4998278;28;20806;-77
2021/10/26 05:36:37;;;;;;;9.00;7.15;;;;;;;;;;4997614;28;20177;-78
2021/10/26 05:39:05;;;;;;;11.57;7.60;;;;;;;;;;4996342;28;20206;-79
2021/10/26 05:41:31;;;;;;;10.73;7.95;;;;;;;;;;4994855;28;20574;-79
2021/10/26 05:43:57;;;;;;;10.93;7.55;;;;;;;;;;4994439;28;20246;-78
2021/10/26 05:46:23;;;;;;;10.73;8.30;;;;;;;;;;4994707;28;20179;-79
2021/10/26 05:48:49;;;;;;;11.10;7.00;;;;;;;;;;4995880;28;20415;-78
2021/10/26 05:51:16;;;;;;;11.32;6.68;;;;;;;;;;4995913;28;20769;-79
2021/10/26 05:53:42;;;;;;;8.88;7.18;;;;;;;;;;4996391;28;20261;-78
2021/10/26 05:56:08;;;;;;;11.07;6.85;;;;;;;;;;4996294;28;20198;-79
2021/10/26 05:58:34;;;;;;;13.27;8.00;;;;;;;;;;4996268;28;20176;-80
2021/10/26 06:01:00;;;;;;;10.77;7.40;;;;;;;;;;4996158;28;20175;-78
2021/10/26 06:03:26;;;;;;;14.40;6.87;;;;;;;;;;4994968;28;20214;-78
2021/10/26 06:05:52;;;;;;;8.38;7.15;;;;;;;;;;4996139;28;20807;-79
2021/10/26 06:08:18;;;;;;;10.40;6.57;;;;;;;;;;4994947;28;20238;-79
2021/10/26 06:10:48;;;;;;;9.52;7.13;;;;;;;;;;4996201;28;20418;-80
2021/10/26 06:13:24;;;;;;;11.98;7.10;;;;;;;;;;4995727;28;20199;-77
2021/10/26 06:15:50;;;;;;;8.45;6.63;;;;;;;;;;4994655;28;20179;-80
2021/10/26 06:18:17;;;;;;;10.15;7.45;;;;;;;;;;4995767;28;20175;-78
2021/10/26 06:20:43;;;;;;;11.57;6.60;;;;;;;;;;4996693;28;20226;-80
2021/10/26 06:23:09;;;;;;;9.90;7.18;;;;;;;;;;4995651;28;20203;-79
2021/10/26 06:25:35;;;;;;;14.38;8.10;;;;;;;;;;4995752;28;20184;-80
2021/10/26 06:28:01;;;;;;;11.07;7.15;;;;;;;;;;4994352;28;20188;-79
2021/10/26 06:30:27;;;;;;;9.13;6.93;;;;;;;;;;4995396;28;20192;-79
2021/10/26 06:32:53;;;;;;;13.70;6.13;;;;;;;;;;4993894;28;20540;-79
2021/10/26 06:35:19;;;;;;;10.80;6.32;;;;;;;;;;4994340;28;20202;-80
2021/10/26 06:37:45;;;;;;;10.45;6.38;;;;;;;;;;4995475;28;20256;-80
2021/10/26 06:40:12;;;;;;;12.87;5.97;;;;;;;;;;4994044;28;20268;-79
2021/10/26 06:42:39;;;;;;;10.20;5.85;;;;;;;;;;4994905;28;20477;-79
2021/10/26 06:45:05;;;;;;;7.30;6.57;;;;;;;;;;4995649;28;20652;-81
2021/10/26 06:47:31;;;;;;;12.18;6.60;;;;;;;;;;4994200;28;20194;-78
2021/10/26 06:49:57;;;;;;;12.83;6.00;;;;;;;;;;4994166;28;20551;-78
2021/10/26 06:52:23;;;;;;;9.03;5.60;;;;;;;;;;4994955;28;20442;-80
2021/10/26 06:54:50;;;;;;;6.80;5.90;;;;;;;;;;4995345;28;20856;-79
2021/10/26 06:57:17;;;;;;;9.88;5.95;;;;;;;;;;4995381;28;20193;-79
2021/10/26 06:59:43;;;;;;;11.55;6.55;;;;;;;;;;4995227;28;20636;-79
2021/10/26 07:02:09;;;;;;;11.60;5.93;;;;;;;;;;4994595;28;20258;-79
2021/10/26 07:04:36;;;;;;;21.17;6.67;;;;;;;;;;4993671;28;20480;-77
2021/10/26 07:07:03;;;;;;;11.23;7.93;;;;;;;;;;4993868;28;20860;-78
2021/10/26 07:09:29;;;;;;;11.13;6.82;;;;;;;;;;4994166;28;20192;-81
2021/10/26 07:11:56;;;;;;;9.93;7.00;;;;;;;;;;4994649;28;20199;-79
2021/10/26 07:14:22;;;;;;;9.25;7.40;;;;;;;;;;4995877;28;20226;-80
2021/10/26 07:16:48;;;;;;;10.53;6.83;;;;;;;;;;4994856;28;20180;-78
2021/10/26 07:19:14;;;;;;;7.53;6.38;;;;;;;;;;4994788;28;20411;-81
2021/10/26 07:21:41;;;;;;;9.55;6.32;;;;;;;;;;4994495;28;20192;-81
2021/10/26 07:24:09;;;;;;;13.00;6.88;;;;;;;;;;4977529;28;20199;-79
2021/10/26 07:26:36;;;;;;;11.80;6.45;;;;;;;;;;4994535;28;20175;-80
2021/10/26 07:29:02;;;;;;;12.10;7.07;;;;;;;;;;4994538;28;20526;-80
2021/10/26 07:31:29;;;;;;;8.82;6.20;;;;;;;;;;4992808;28;20273;-78
2021/10/26 07:33:59;;;;;;;7.55;5.95;;;;;;;;;;4994411;28;20207;-80
2021/10/26 07:36:30;;;;;;;9.57;6.68;;;;;;;;;;4993528;28;20214;-80
2021/10/26 07:38:59;;;;;;;12.65;6.35;;;;;;;;;;4993274;28;20246;-80
2021/10/26 07:41:25;;;;;;;8.70;6.20;;;;;;;;;;4993010;28;20183;-78
2021/10/26 07:43:51;;;;;;;12.38;7.07;;;;;;;;;;4993184;28;20627;-81
2021/10/26 07:46:17;;;;;;;8.88;6.50;;;;;;;;;;4994567;28;20230;-78
2021/10/26 07:48:43;;;;;;;8.87;6.60;;;;;;;;;;4977065;28;20195;-78
2021/10/26 07:51:09;;;;;;;12.50;6.63;;;;;;;;;;4993819;28;20427;-78
2021/10/26 07:53:35;;;;;;;8.23;5.97;;;;;;;;;;4976741;28;20517;-79
2021/10/26 07:56:03;;;;;;;9.77;6.47;;;;;;;;;;4976848;28;20187;-79
2021/10/26 07:58:30;;;;;;;9.90;6.28;;;;;;;;;;4993201;28;20414;-77
2021/10/26 08:00:56;;;;;;;9.50;6.10;;;;;;;;;;4992458;28;20639;-79
2021/10/26 08:03:22;;;;;;;8.80;6.47;;;;;;;;;;4993909;28;20736;-79
2021/10/26 08:05:49;;;;;;;8.23;6.85;;;;;;;;;;4992976;28;20192;-78
2021/10/26 08:08:17;;;;;;;10.25;6.13;;;;;;;;;;4992795;28;20206;-78
2021/10/26 08:10:43;;;;;;;9.33;6.30;;;;;;;;;;4993129;28;20175;-80
2021/10/26 08:13:09;;;;;;;6.90;6.10;;;;;;;;;;4992561;28;20466;-79
2021/10/26 08:15:35;;;;;;;10.88;5.70;;;;;;;;;;4994159;28;20781;-77
2021/10/26 08:18:01;;;;;;;9.67;6.07;;;;;;;;;;4994060;28;20179;-80
2021/10/26 08:20:27;;;;;;;6.77;6.00;;;;;;;;;;4994011;28;20414;-79
2021/10/26 08:22:53;;;;;;;9.33;5.80;;;;;;;;;;4992159;28;20947;-79
2021/10/26 08:25:23;;;;;;;7.23;5.80;;;;;;;;;;4976381;28;20438;-78
2021/10/26 08:27:55;;;;;;;7.47;5.80;;;;;;;;;;4992704;28;20472;-79
2021/10/26 08:35:47;;;;;;;8.23;4.90;;;;;;;;;;4993969;28;20407;-79
2021/10/26 08:38:14;;;;;;;6.83;5.50;;;;;;;;;;4992484;28;20481;-79
2021/10/26 08:40:47;;;;;;;9.70;4.97;;;;;;;;;;4993851;28;20861;-79
2021/10/26 08:43:14;;;;;;;8.07;4.37;;;;;;;;;;4992071;28;20821;-77
2021/10/26 08:45:44;;;;;;;8.00;3.90;;;;;;;;;;4993746;28;20471;-79
2021/10/26 08:48:13;;;;;;;5.07;3.80;;;;;;;;;;4993781;28;20530;-78
2021/10/26 08:50:39;;;;;;;4.97;2.63;;;;;;;;;;4994086;28;20427;-77
2021/10/26 08:53:06;;;;;;;3.43;2.17;;;;;;;;;;4993031;28;20438;-77
2021/10/26 08:55:37;;;;;;;4.53;2.20;;;;;;;;;;4993654;28;20411;-78
2021/10/26 08:58:04;;;;;;;4.67;2.00;;;;;;;;;;4993596;28;20406;-78
2021/10/26 09:00:30;;;;;;;10.73;3.43;;;;;;;;;;4993687;28;20438;-78
2021/10/26 09:02:56;;;;;;;7.20;2.30;;;;;;;;;;4993030;28;20434;-78
2021/10/26 09:05:23;;;;;;;6.27;2.30;;;;;;;;;;4993423;28;20410;-77
2021/10/26 09:08:05;;;;;;;11.23;2.00;;;;;;;;;;4992197;28;20795;-77
2021/10/26 09:10:32;;;;;;;4.37;2.03;;;;;;;;;;4992157;28;20393;-79
2021/10/26 09:19:13;;;;;;;3.50;1.90;;;;;;;;;;4997029;28;20457;-79
2021/10/26 09:21:39;;;;;;;5.43;2.03;;;;;;;;;;4996512;28;20956;-79
2021/10/26 09:24:08;;;;;;;7.90;2.07;;;;;;;;;;4979607;28;20480;-78
2021/10/26 09:27:03;;;;;;;6.87;1.87;;;;;;;;;;4995695;28;20469;-80
2021/10/26 09:29:35;;;;;;;4.07;1.50;;;;;;;;;;4988151;28;20418;-78
2021/10/26 09:32:09;;;;;;;5.90;1.80;;;;;;;;;;4996308;28;20454;-78
2021/10/26 09:34:43;;;;;;;1.90;1.53;;;;;;;;;;4996840;28;20978;-79
2021/10/26 09:37:09;;;;;;;6.17;1.67;;;;;;;;;;4996875;28;20417;-80
2021/10/26 09:39:35;;;;;;;4.23;1.57;;;;;;;;;;4996918;28;20421;-79
2021/10/26 09:42:03;;;;;;;6.20;2.10;;;;;;;;;;4996477;28;20434;-77
2021/10/26 09:44:33;;;;;;;4.73;2.47;;;;;;;;;;4995753;28;20374;-78
2021/10/26 09:47:09;;;;;;;7.80;2.47;;;;;;;;;;4995563;28;20926;-80
2021/10/26 09:49:39;;;;;;;6.10;1.63;;;;;;;;;;4996807;28;20381;-78
2021/10/26 09:52:24;;;;;;;4.60;1.63;;;;;;;;;;4996033;28;20522;-79
2021/10/26 09:55:02;;;;;;;5.13;2.03;;;;;;;;;;4996292;28;20801;-78
2021/10/26 09:57:35;;;;;;;4.47;1.60;;;;;;;;;;4996574;28;20461;-80
2021/10/26 10:00:02;;;;;;;3.40;1.90;;;;;;;;;;4994945;28;20963;-77
2021/10/26 10:02:28;;;;;;;3.70;1.90;;;;;;;;;;4996135;28;20489;-79
2021/10/26 10:04:55;;;;;;;2.83;1.70;;;;;;;;;;4995087;28;20911;-80
2021/10/26 10:07:29;;;;;;;4.30;2.10;;;;;;;;;;4995104;28;20419;-77
2021/10/26 10:09:56;;;;;;;2.60;1.60;;;;;;;;;;4996236;28;20411;-76
2021/10/26 10:12:23;;;;;;;4.27;1.70;;;;;;;;;;4995986;28;20458;-81
2021/10/26 10:14:53;;;;;;;3.50;1.77;;;;;;;;;;4996095;28;20462;-81
2021/10/26 10:17:21;;;;;;;5.93;1.80;;;;;;;;;;4996281;28;20409;-79
2021/10/26 10:19:47;;;;;;;4.97;1.70;;;;;;;;;;4994830;28;20543;-81
2021/10/26 10:22:14;;;;;;;3.67;1.20;;;;;;;;;;4995547;28;20422;-79
2021/10/26 10:24:41;;;;;;;10.00;2.10;;;;;;;;;;4995783;28;20450;-78
2021/10/26 10:27:08;;;;;;;5.03;1.87;;;;;;;;;;4995882;28;20477;-80
2021/10/26 10:29:35;;;;;;;4.30;1.77;;;;;;;;;;4994765;28;20447;-77
2021/10/26 10:32:01;;;;;;;6.83;1.93;;;;;;;;;;4995077;28;20465;-78
2021/10/26 10:34:27;;;;;;;6.07;1.60;;;;;;;;;;4995616;28;20557;-79
2021/10/26 10:36:54;;;;;;;5.93;1.90;;;;;;;;;;4995615;28;20384;-80
2021/10/26 10:39:27;;;;;;;5.20;1.97;;;;;;;;;;4995784;28;20407;-78
2021/10/26 10:42:11;;;;;;;4.50;1.83;;;;;;;;;;4995264;28;20409;-78
2021/10/26 10:44:39;;;;;;;3.53;1.43;;;;;;;;;;4995711;28;20411;-78
2021/10/26 10:47:09;;;;;;;8.07;1.67;;;;;;;;;;4995782;28;20414;-79
2021/10/26 10:49:35;;;;;;;3.83;1.47;;;;;;;;;;4994683;28;20776;-80
2021/10/26 10:52:04;;;;;;;5.60;1.83;;;;;;;;;;4993926;28;20438;-78
2021/10/26 10:54:40;;;;;;;4.67;1.70;;;;;;;;;;4995530;28;20608;-80
2021/10/26 10:57:26;;;;;;;4.53;1.83;;;;;;;;;;4994618;28;20414;-79
2021/10/26 10:59:53;;;;;;;3.53;1.87;;;;;;;;;;4990269;28;20736;-79
2021/10/26 11:02:20;;;;;;;4.93;2.20;;;;;;;;;;4997256;28;20406;-80
2021/10/26 11:04:47;;;;;;;7.23;2.50;;;;;;;;;;4995277;28;20919;-80
2021/10/26 11:07:13;;;;;;;3.90;1.37;;;;;;;;;;4993943;28;20802;-79
2021/10/26 11:09:43;;;;;;;3.63;1.60;;;;;;;;;;4993741;28;20426;-80
2021/10/26 11:12:27;;;;;;;15.60;2.07;;;;;;;;;;4993319;28;20413;-80
2021/10/26 11:14:55;;;;;;;4.23;1.70;;;;;;;;;;4994727;28;20988;-79
2021/10/26 11:17:37;;;;;;;2.80;1.17;;;;;;;;;;4994976;28;20411;-80
2021/10/26 11:20:04;;;;;;;4.77;1.90;;;;;;;;;;4994882;28;20411;-80
2021/10/26 11:22:49;;;;;;;4.00;1.67;;;;;;;;;;4993128;28;20409;-78
2021/10/26 11:25:20;;;;;;;9.03;2.87;;;;;;;;;;4993559;28;20382;-78
2021/10/26 11:27:46;;;;;;;3.93;1.77;;;;;;;;;;4997311;28;20415;-78
2021/10/26 11:30:33;;;;;;;3.27;1.50;;;;;;;;;;4994555;28;20772;-81
2021/10/26 11:33:14;;;;;;;4.50;1.37;;;;;;;;;;4985988;28;20443;-80
2021/10/26 11:35:41;;;;;;;3.50;1.87;;;;;;;;;;4993962;28;20426;-80
2021/10/26 11:38:11;;;;;;;4.77;1.53;;;;;;;;;;4993185;28;20415;-80
2021/10/26 11:40:37;;;;;;;3.93;1.73;;;;;;;;;;4994622;28;20516;-79
2021/10/26 11:43:03;;;;;;;5.33;1.83;;;;;;;;;;4992593;28;20526;-81
2021/10/26 11:45:31;;;;;;;2.93;1.63;;;;;;;;;;4994509;28;20473;-80
2021/10/26 11:47:57;;;;;;;3.40;1.60;;;;;;;;;;4994277;28;20409;-80
2021/10/26 11:50:23;;;;;;;3.23;1.53;;;;;;;;;;4976857;28;20422;-77
2021/10/26 11:52:50;;;;;;;4.73;1.90;;;;;;;;;;4993984;28;20478;-80
2021/10/26 11:55:28;;;;;;;3.00;1.37;;;;;;;;;;4994280;28;20436;-79
2021/10/26 11:57:54;;;;;;;3.73;2.13;;;;;;;;;;4994202;28;20484;-78
2021/10/26 12:00:20;;;;;;;4.63;2.30;;;;;;;;;;4994185;28;20421;-76
2021/10/26 12:02:46;;;;;;;5.70;1.63;;;;;;;;;;4992273;28;20966;-79
2021/10/26 12:05:20;;;;;;;2.83;1.97;;;;;;;;;;4994007;28;20397;-81
2021/10/26 12:07:51;;;;;;;5.73;1.40;;;;;;;;;;4992755;28;20403;-77
2021/10/26 12:10:21;;;;;;;1.80;1.10;;;;;;;;;;4992840;28;20444;-79
2021/10/26 12:12:46;;;;;;;2.57;1.20;;;;;;;;;;4993714;28;20435;-81
2021/10/26 12:15:13;;;;;;;3.63;1.53;;;;;;;;;;4976600;28;20452;-80
2021/10/26 12:17:40;;;;;;;5.20;1.77;;;;;;;;;;4994204;28;20419;-78
2021/10/26 12:20:20;;;;;;;4.50;1.93;;;;;;;;;;4994079;28;20743;-78
2021/10/26 12:22:51;;;;;;;5.43;2.27;;;;;;;;;;4993586;28;20457;-78
2021/10/26 12:25:24;;;;;;;9.03;2.23;;;;;;;;;;4993788;28;20478;-79
2021/10/26 12:27:52;;;;;;;3.80;1.80;;;;;;;;;;4993747;28;20404;-79
2021/10/26 12:30:22;;;;;;;3.40;1.90;;;;;;;;;;4993756;28;20385;-80
2021/10/26 12:32:52;;;;;;;3.80;1.40;;;;;;;;;;4993222;28;20484;-79
2021/10/26 12:35:18;;;;;;;3.87;1.63;;;;;;;;;;4992304;28;20845;-79
2021/10/26 12:37:44;;;;;;;2.50;1.57;;;;;;;;;;4992492;28;20398;-78
2021/10/26 12:40:15;;;;;;;3.73;1.87;;;;;;;;;;4993656;28;20930;-78
2021/10/26 12:42:43;;;;;;;3.40;1.87;;;;;;;;;;4994282;28;20435;-79
2021/10/26 12:45:13;;;;;;;3.70;1.57;;;;;;;;;;4993541;28;20391;-80
2021/10/26 12:47:59;;;;;;;2.27;1.00;;;;;;;;;;4997003;28;20407;-80
2021/10/26 12:50:34;;;;;;;3.97;1.47;;;;;;;;;;4997810;28;20407;-79
2021/10/26 12:53:14;;;;;;;2.70;1.40;;;;;;;;;;4997204;28;20437;-78
2021/10/26 12:55:41;;;;;;;3.20;1.50;;;;;;;;;;4997396;28;20382;-81
2021/10/26 12:58:26;;;;;;;3.63;1.10;;;;;;;;;;4997342;28;20414;-81
2021/10/26 13:00:52;;;;;;;4.43;2.00;;;;;;;;;;4997439;28;20917;-77
2021/10/26 13:03:22;;;;;;;2.23;1.10;;;;;;;;;;4995701;28;20480;-80
2021/10/26 13:05:49;;;;;;;6.73;1.80;;;;;;;;;;4997247;28;20430;-81
2021/10/26 13:08:19;;;;;;;4.57;1.40;;;;;;;;;;4996206;28;20445;-77
2021/10/26 13:10:45;;;;;;;2.80;1.30;;;;;;;;;;4995920;28;20434;-77
2021/10/26 13:13:13;;;;;;;3.20;1.23;;;;;;;;;;4996604;28;20406;-77
2021/10/26 13:15:44;;;;;;;4.13;1.77;;;;;;;;;;4997045;28;20912;-80
2021/10/26 13:18:13;;;;;;;6.73;1.60;;;;;;;;;;4995840;28;20389;-77
2021/10/26 13:20:45;;;;;;;6.47;1.60;;;;;;;;;;4996908;28;20418;-80
2021/10/26 13:23:12;;;;;;;5.27;1.70;;;;;;;;;;4996449;28;20406;-81
2021/10/26 13:25:47;;;;;;;1.83;1.13;;;;;;;;;;4995438;28;20760;-77
2021/10/26 13:28:20;;;;;;;3.20;1.57;;;;;;;;;;4996927;28;20885;-76
2021/10/26 13:30:49;;;;;;;4.67;1.53;;;;;;;;;;4995316;28;20412;-79
2021/10/26 13:33:15;;;;;;;4.07;1.60;;;;;;;;;;4996147;28;20430;-80
2021/10/26 13:35:42;;;;;;;4.00;1.57;;;;;;;;;;4996534;28;20409;-77
2021/10/26 13:38:08;;;;;;;3.40;1.53;;;;;;;;;;4995447;28;20780;-80
2021/10/26 13:40:34;;;;;;;3.23;1.43;;;;;;;;;;4996686;28;20480;-77
2021/10/26 13:43:01;;;;;;;1.90;1.13;;;;;;;;;;4994836;28;20456;-80
2021/10/26 13:45:27;;;;;;;5.83;2.00;;;;;;;;;;4996524;28;20411;-81
2021/10/26 13:47:53;;;;;;;3.53;1.23;;;;;;;;;;4978700;28;20888;-78
2021/10/26 13:50:19;;;;;;;3.37;1.10;;;;;;;;;;4996430;28;20402;-80
2021/10/26 13:52:45;;;;;;;2.60;1.30;;;;;;;;;;4996100;28;20433;-80
2021/10/26 13:55:11;;;;;;;4.20;1.30;;;;;;;;;;4996538;28;20436;-77
2021/10/26 13:57:39;;;;;;;2.90;1.17;;;;;;;;;;4994706;28;20397;-77
2021/10/26 14:00:13;;;;;;;2.17;0.90;;;;;;;;;;4996055;28;20451;-80
2021/10/26 14:02:40;;;;;;;4.20;1.40;;;;;;;;;;4995915;28;20423;-80
2021/10/26 14:05:08;;;;;;;2.27;1.03;;;;;;;;;;4996121;28;20411;-79
2021/10/26 14:07:35;;;;;;;4.10;1.43;;;;;;;;;;4996057;28;20922;-79
2021/10/26 14:10:01;;;;;;;2.60;1.20;;;;;;;;;;4995936;28;20831;-79
2021/10/26 14:12:27;;;;;;;3.73;1.20;;;;;;;;;;4995551;28;20504;-75
2021/10/26 14:14:53;;;;;;;2.90;1.40;;;;;;;;;;4996019;28;20458;-75
2021/10/26 14:17:19;;;;;;;2.53;1.63;;;;;;;;;;4994795;28;20422;-75
2021/10/26 14:19:45;;;;;;;6.47;1.33;;;;;;;;;;4995979;28;20502;-74
2021/10/26 14:22:11;;;;;;;2.57;1.20;;;;;;;;;;4995425;28;20569;-73
2021/10/26 14:24:37;;;;;;;4.93;1.80;;;;;;;;;;4991190;28;20431;-78
2021/10/26 14:27:03;;;;;;;2.77;1.53;;;;;;;;;;4993754;28;20425;-78
2021/10/26 14:29:33;;;;;;;3.70;1.30;;;;;;;;;;4994438;28;20505;-78
2021/10/26 14:31:59;;;;;;;3.77;1.57;;;;;;;;;;4992910;28;20888;-81
2021/10/26 14:34:25;;;;;;;3.03;2.20;;;;;;;;;;4994268;28;20561;-79
2021/10/26 14:36:56;;;;;;;2.20;1.17;;;;;;;;;;4993986;28;20419;-79
2021/10/26 14:55:23;;;;;;;3.03;1.93;;;;;;;;;;4993021;28;20466;-76
2021/10/26 14:57:52;;;;;;;5.23;1.30;;;;;;;;;;4994159;28;20473;-79
2021/10/26 15:00:19;;;;;;;4.10;1.53;;;;;;;;;;4993539;28;20414;-77
2021/10/26 15:02:45;;;;;;;2.80;1.30;;;;;;;;;;4992926;28;20435;-79
2021/10/26 15:05:11;;;;;;;12.63;1.87;;;;;;;;;;4991949;28;20997;-79
2021/10/26 15:07:38;;;;;;;2.93;1.50;;;;;;;;;;4992379;28;20430;-77
2021/10/26 15:10:13;;;;;;;1.83;1.10;;;;;;;;;;4990319;28;20426;-77
2021/10/26 15:12:43;;;;;;;3.53;1.67;;;;;;;;;;4977124;28;20974;-80
2021/10/26 15:15:11;;;;;;;2.37;1.27;;;;;;;;;;4992512;28;20466;-77